We fight to improve the lives
of everyone affected by epilepsy

Virtual Bradford 10k Results

Virtual Bradford 10k 2020
Event Date: 
Wednesday 24 June 2020

2020 Virtual Bradford 10k results

Results updated every Friday afternoon.

Pos. Runner No. Name Gender Cat. Club Time Gender Pos. Cat. Pos.
1 3312 Jonathon Harding M MSEN 00:33:08 1 1
10 1292 Michael Dankowycz M MSEN 00:42:16 9 5
100 813 Paul Carroll M MSEN 00:53:08 86 36
101 299 Catherine Dobson F FSEN Otley AC 00:53:20 15 10
102 945 Roxy Taylor F FSEN 00:53:22 16 11
103 532 Lynne Metcalfe F F50 Rothwell & District AC 00:53:25 17 1
104 1048 Tracy Foy F F50 Saltaire striders 00:53:25 18 2
105 2113 Craig Milner M MSEN 00:53:28 87 37
106 988 Andrew Williams M M40 00:53:29 88 19
107 854 Michelle Aston F F45 00:53:30 19 3
108 473 Stefan Rose M MSEN 00:53:30 89 38
109 1243 Jonathan Kitcheman M M45 00:53:32 90 12
11 78 Arslaan Butt M MSEN 00:42:26 10 6
110 30 Lee Goodridge M M40 00:53:34 91 20
111 596 Chris Smith-Tomkins M MSEN 00:53:36 92 39
112 752 Pawel Solarz M MSEN 00:53:41 93 40
113 1087 Vicky Cousins F F45 Eccleshill road runners 00:53:42 20 4
114 217 David Thornton M M50 Spenborough & Dist AC 00:53:43 94 11
115 1894 Daniel Denton M MSEN 00:53:47 95 41
116 725 Mark Jackson M M55 Pudsey Runners 00:53:48 96 8
117 3348 Andrew Jackson M M40 00:53:50 97 21
118 1210 Sadiq Anjum M M45 00:53:54 98 13
119 1062 Shaun Ullah M M55 00:54:01 99 9
12 706 Saeed Ali M M40 00:42:40 11 2
120 219 Eddie Ashworth M M45 00:54:02 100 14
121 721 Mark Brook M M45 Northowram Pumas 00:54:07 101 15
122 2412 Elizabeth Dimelow F FSEN 00:54:11 21 12
123 2098 Jamie Donohoe M M40 00:54:11 102 22
124 800 Dominique McLachlan F FSEN 00:54:12 22 13
125 2191 Tom Page M MSEN 00:54:22 103 42
126 174 Richard Airey M M40 00:54:34 104 23
127 2703 Sarah Arundale F FSEN 00:54:38 23 14
128 806 Claire Baggley F F45 Queensbury running club 00:54:38 24 5
129 533 John Bradfield M M50 Lonely Goat 00:54:41 105 12
13 694 Richard Tempest M M55 00:43:13 12 1
130 3275 Neil Holloway M M45 00:54:45 106 16
131 485 Susan Cash F F50 Stainland Lions Running Club 00:54:45 25 3
132 1989 Angela Germain F F50 00:54:45 26 4
133 240 Mary Lynch F F65 00:54:55 27 1
134 3277 David Lingwood M MSEN York Knavesmire Harriers 00:54:58 107 43
135 3287 Michael Woodhead M M40 00:55:00 108 24
136 715 Chris Toothill M M55 00:55:07 109 10
137 2094 Jo Marsden F F45 Bramley Breezers 00:55:10 28 6
138 397 Adrian Stanley M MSEN 00:55:13 110 44
139 1014 Sharon Cousen F F50 Halifax Harriers 00:55:14 29 5
14 3274 David Semmence M MSEN Bramley Breezers 00:43:33 13 7
140 1455 James Inman M M40 00:55:17 111 25
141 2384 David Pearson M M50 00:55:18 112 13
142 1077 Alan Pickard M M55 00:55:22 113 11
143 1248 Molly Barker F FSEN 00:55:28 30 15
144 444 Graeme Mason M M60 00:55:47 114 3
145 1621 Mike Moss M M65 Saltaire Striders 00:55:55 115 2
146 1240 John Walsh M M45 Rodillian Runners 00:56:00 116 17
147 1433 Janet Hartley F F60 Rothwell Harriers 00:56:04 31 1
148 1813 Natalie Bowes F FSEN 00:56:04 32 16
149 891 Kirstan Bradley F F45 Lonely Goat 00:56:06 33 7
15 411 Andrew Paterson M M55 Queensbury Running Club 00:44:12 14 2
150 609 Paul Wilkinson M M55 00:56:11 117 12
151 2396 Lorna Best F FSEN 00:56:12 34 17
152 618 Richard Holt M M45 00:56:14 118 18
153 2024 Connor Whitehead M MSEN 00:56:19 119 45
154 215 Sharon Bottomley F F40 South Leeds Lakers 00:56:20 35 1
155 1525 Barry Munnings M M65 00:56:21 120 3
156 19 Christopher Waddingham M M40 00:56:27 121 26
157 1662 Natasha McIntyre F FSEN 00:56:28 36 18
158 2268 Alejandro Pinto M M45 Dragons Running Club (Leeds) 00:56:30 122 19
159 500 Keith Pierre M M50 00:56:32 123 14
16 400 Rob Cooper M M40 00:44:22 15 3
160 279 Ashraf Wallace M M40 00:56:37 124 27
161 5026 Glynis Wiles F F40 00:56:37 37 2
162 1698 Julie Smith F F45 00:56:38 38 8
163 3316 Tammy Edwards F FSEN 00:56:42 39 19
164 2163 Phil Heron M MSEN Leeds Lakers 00:56:45 125 46
165 3317 Drew Allen F FSEN 00:56:46 40 20
166 722 Sam Turnbull M MSEN 00:56:47 126 47
167 97 Shaun Ogden M M45 00:56:51 127 20
168 778 Amjid Hussain M MSEN 00:56:53 128 48
169 328 Robin Coghlan M M50 Roundhay Runners 00:56:59 129 15
17 960 Ben Griffin M MSEN 00:44:24 16 8
170 2421 Greg Willmott M M70 00:57:24 130 2
171 179 Michelle Burgess F FSEN 00:57:26 41 21
172 1572 Gareth Armstrong M M40 00:57:32 131 28
173 3303 Stephen Smales M M55 00:57:34 132 13
174 364 Matthew Savory M M40 00:57:34 133 29
175 1017 Lee Earnshaw M M45 00:57:36 134 21
176 273 Rebecca Palmer F FSEN 00:57:36 42 22
177 198 Craig Elliott M M45 Saltaire striders 00:57:38 135 22
178 2951 Carla Sharp F FSEN Northowram Pumas 00:57:40 43 23
179 1375 Steven Clayton M M45 Farsley Flyers 00:57:42 136 23
18 1083 Wayne Wright M M45 00:44:46 17 3
180 761 Mark Reid M M40 StAC 00:57:44 137 30
181 1436 Marina Waymouth F F50 00:57:46 44 6
182 2224 Andrew Denman M MSEN 00:57:48 138 49
183 3295 Adele Boocock F F45 00:57:59 45 9
184 244 Jason Hays M M40 Roberttown Road Runners 00:58:02 139 31
185 1752 Katrina Trueman F FSEN 00:58:03 46 24
186 1618 Namrah Shahid F FSEN 00:58:06 47 25
187 1702 Katie Jo Jasiewicz F F40 00:58:07 48 3
188 1745 Gavin Summers M M50 00:58:10 140 16
189 8 Louise Cribbes F F55 00:58:13 49 2
19 367 Jonathan Mason M M40 Queensbury Running Club 00:44:59 18 4
190 731 Simon Taylor M MSEN 00:58:15 141 50
191 371 Scott Remmer M MSEN 00:58:19 142 51
192 1794 Bill Haygarth M M65 Barnsley Harriers 00:58:19 143 4
193 398 Dharmendra Singh M MSEN 00:58:20 144 52
194 1731 Greg Goodall M M50 Baildon Runners 00:58:20 145 17
195 2068 Robert Moor M M50 00:58:22 146 18
196 1396 Clive Titterton M M60 00:58:22 147 4
197 1079 Nasir Hussain M M50 00:58:26 148 19
198 3335 Stuart Wagstaff M M40 00:58:29 149 32
199 1845 Rachel Feather F F40 Bramley Breezers 00:58:31 50 4
2 2734 Lyn Wigfield F F70 Keighley & Craven AC 00:37:27 1 1
20 610 Rick Craven M MSEN 00:45:00 19 9
200 1971 Chris Knowles M MSEN 00:58:32 150 53
201 684 Steve Ellis M M60 00:58:34 151 5
202 2276 Karen Horton F F45 Rothwell Harriers 00:58:38 51 10
203 3375 Rachel Draper F FSEN 00:58:40 52 26
204 1736 Robert Allsopp M MSEN 00:58:43 152 54
205 1364 Emma Lockwood F FSEN 00:58:44 53 27
206 130 Joanne Hardaker F F45 Saltaire Striders 00:58:45 54 11
207 180 Anna Sabbo-Wilson F F45 Sowerby Bridge Snails 00:58:48 55 12
208 1707 Mark Thornton M M50 Lonely Goat 00:58:53 153 20
209 520 Jane Stewart F F60 Halifax Harriers 00:58:59 56 2
21 260 Christophe Martyn M M50 Pudsey Pacers 00:45:02 20 2
210 1030 Anthony Smith M M40 Queensbury Running Club 00:59:01 154 33
211 868 Giles Cook M M45 00:59:04 155 24
212 89 Nicole Gregory F FSEN 00:59:10 57 28
213 809 Steve Pickering M M45 00:59:13 156 25
214 1587 George Goddard M M70 00:59:14 157 3
215 189 Simon Lickley M M50 00:59:16 158 21
216 1194 Radoslaw Szugalski M MSEN 00:59:21 159 55
217 191 Katie Graves F F45 00:59:23 58 13
218 869 Karen Robinson F F50 00:59:23 59 7
219 187 Gary Wright M M50 00:59:24 160 22
22 661 Howard Paley M MSEN 00:45:09 21 10
220 1966 Imran Latif M M40 00:59:27 161 34
221 2050 David Caink M M55 00:59:29 162 14
222 3399 Jayne Coates F F50 Bingley Harriers 00:59:30 60 8
223 65 Anne Thornton F F60 00:59:34 61 3
224 3356 Leslie Shipley M M65 Bramley Breezers 00:59:40 163 5
225 1825 Katie Oscroft F F55 00:59:45 62 3
226 1997 Nicola Hinchliffe F F45 Halifax Harriers 00:59:46 63 14
227 373 Paul Snelling M M40 Knaresborough Striders 00:59:48 164 35
228 1135 Alex Stevens F FSEN 00:59:58 64 29
229 2726 Martin Pugh M M40 00:59:58 165 36
23 999 Emer Dudley F F55 Roberttown Road Runners 00:45:59 2 1
230 2296 Sally Swindell F F40 01:00:00 65 5
231 2153 Clair Varney F F45 01:00:06 66 15
232 79 Mark Wilson M M45 Dewsbury Road Runners 01:00:07 166 26
233 2206 Sarah Ingham F FSEN Farsley Flyers 01:00:15 67 30
234 2062 Darren North M M45 Rothwell Harriers 01:00:27 167 27
235 192 Simon Pollard M M50 Pudsey Pacers 01:00:27 168 23
236 3403 Megan Harvey F FSEN 01:00:32 68 31
237 2895 Christopher Bedford M MSEN 01:00:33 169 56
238 234 Kelly Hardcastle F F40 01:00:34 69 6
239 2379 Martin Bare M M55 Farsley Flyers 01:00:34 170 15
24 754 Simon Glover M M60 South Leeds Lakers 00:45:59 22 1
240 1502 Nicola Stojkovic F F40 Easingwold Running Club 01:00:43 70 7
241 74 Jodie Sayer F F40 01:00:43 71 8
242 504 Andrew Alston M M50 Idle AC 01:00:55 171 24
243 1950 Eisha Ewida F F40 01:01:00 72 9
244 2001 Mushtaq Modak M M50 01:01:02 172 25
245 921 Adam Davies M MSEN 01:01:09 173 57
246 2251 Andrew Hewitt M M50 01:01:15 174 26
247 2338 Vanessa Scott F F45 01:01:20 73 16
248 2589 Gillian Clark F FSEN 01:01:30 74 32
249 1155 Nihil Limbadiya M MSEN 01:01:36 175 58
25 442 David Milnes M MSEN 00:46:12 23 11
250 1839 Denise Davis F F50 Saltaire Striders 01:01:38 75 9
251 779 Tim Isaacs M M55 Rothwell Harriers 01:01:39 176 16
252 2049 Paul Symons M M45 01:01:48 177 28
253 2315 Lee Courtney-Rowlands M M60 01:01:53 178 6
254 2053 Nicola Cantle F F40 01:02:00 76 10
255 815 Judith Marshall F F50 Pudsey Pacers 01:02:00 77 10
256 2194 Jessica Eastell F FSEN 01:02:15 78 33
257 2121 David Watson M M50 01:02:22 179 27
258 1367 Dave Reilly M M45 Rochdale Triathlon Club 01:02:22 180 29
259 2069 Adam Paterson M MU21 01:02:22 181 1
26 3392 James Clark M MSEN 00:46:17 24 12
260 1138 Neil Kennedy M M40 01:02:23 182 37
261 2311 Sara Cowell F F40 01:02:24 79 11
262 2139 Louise Barber F F45 Pudsey pacers 01:02:26 80 17
263 2722 Tom Feaheny M MSEN 01:02:28 183 59
264 1332 Karen Wagstaff F F50 01:02:32 81 11
265 1466 Steve Bland M M40 01:02:38 184 38
266 857 Michael Williams M M55 LABC Runners 01:02:46 185 17
267 1417 Kathryn Griggs F F45 01:02:53 82 18
268 1595 Barbara Hobbs F F55 01:02:53 83 4
269 1586 Rosemary Jeeps F F55 Bingley Harriers 01:02:56 84 5
27 512 Paul Tranter M M55 Otley AC 00:46:38 25 3
270 2088 Samantha Garside F F40 Pudsey Pacers 01:03:00 85 12
271 2204 Julie Dean F F60 01:03:00 86 4
272 123 Andrew Dean M M50 Baildon Runners 01:03:00 186 28
273 197 Yvette Naylor F F50 Brighouse Bumble Bees 01:03:01 87 12
274 2438 Gary Penfold M M50 Morley Running Club 01:03:05 187 29
275 2813 Ilana Bartle F FU21 01:03:07 88 2
276 1509 Steph Lawrence F F50 01:03:12 89 13
277 1490 peter hey M M65 Kirkstall Harriers 01:03:24 188 6
278 3334 Hilary Garnett F F50 01:03:24 90 14
279 595 Michael Barker M M50 Farsley Flyers 01:03:25 189 30
28 434 Jane Milnes F FSEN 00:46:46 3 1
280 2667 Jo Hirstwood F F45 01:03:26 91 19
281 1608 Jennifer Chambers F F45 Bridlington Road Runners 01:03:33 92 20
282 2374 Katie Burnside F FSEN 01:03:35 93 34
283 2968 Wade O'Neill M MU21 01:03:42 190 2
284 3338 David Hawksworth M M55 01:03:46 191 18
285 1743 Andrea Messenger F F50 01:03:47 94 15
286 2375 Martin Burnside M M55 Fell Runners Association 01:03:49 192 19
287 744 Mohammed Nasser Khan M MSEN 01:03:52 193 60
288 681 Sageer Saleem M MSEN 01:03:52 194 61
289 568 Craig Shaw M M45 Northowram Pumas 01:03:59 195 30
29 1028 Sarah Tolkin F FSEN Rothwell Harriers and AC 00:46:49 4 2
290 2663 Hannah Skilton F FSEN 01:04:00 95 35
291 1213 James Hudson M M40 01:04:08 196 39
292 483 Donna Hector F F40 Saltaire Striders 01:04:09 96 13
293 1506 Jo-Anne Lee F F45 St Theresas 01:04:16 97 21
294 3251 Wayne Ellison M M45 Trawden Athletic 01:04:23 197 31
295 1684 Julie Warden F F50 01:04:27 98 16
296 70 Julie Smith F F50 Vegan Runners 01:04:32 99 17
297 1460 Joanne Scott F F45 01:04:33 100 22
298 1153 Martina Gjoni F FSEN 01:04:37 101 36
299 390 Dean Smith M M45 South Leeds Lakers 01:04:45 198 32
3 1163 Simon Jones M MSEN Abbey Runners 00:37:38 2 2
30 727 Dylan Comyn M MSEN 00:46:54 26 13
300 2933 Dawn Savidge F F40 01:04:46 102 14
301 1872 Jullie Todd F F50 01:04:50 103 18
302 2061 Emma Swinhoe F F40 Brighouse Bees 01:04:59 104 15
303 1462 Dominique Warner F F40 01:05:00 105 16
304 2790 Tracey Naylor F F50 01:05:07 106 19
305 930 Timothy Bradley-Cooper M M40 01:05:12 199 40
306 1823 David Illingworth M MSEN 01:05:22 200 62
307 1979 Rae Tedder F F45 01:05:26 107 23
308 3405 Angela Cowton F F55 Halifax Harriers 01:05:27 108 6
309 201 Louise O'Brien F F40 01:05:34 109 17
31 242 Simon Holland M M50 00:46:55 27 3
310 2605 Louise Chappell F FSEN 01:05:41 110 37
311 2401 Michelle Roberts F F45 01:05:41 111 24
312 1673 Emma Turner F F40 01:05:49 112 18
313 2814 Karen Bartle F F40 01:05:50 113 19
314 1418 Di Raper F F50 Bridlington Road Runners 01:05:50 114 20
315 2395 Donna Nicholson F FSEN 01:05:51 115 38
316 3297 Colin Hewitt M M55 01:05:53 201 20
317 246 Victoria Barritt F F50 01:05:56 116 21
318 1483 Marie Linley F F50 01:05:56 117 22
319 1401 Joanne Larke F F40 North Bolton runners 01:06:00 118 20
32 629 Scott Bradbury M MSEN Stadium Runners 00:46:56 28 14
320 3305 Deborah Moore F F40 01:06:00 119 21
321 1479 Kathryn Thompson F F40 01:06:01 120 22
322 1543 Kimberley Beale F F40 01:06:04 121 23
323 1473 Ken Creek M M55 Dragons Running Club (Leeds) 01:06:04 202 21
324 1575 Claire Lake F F40 Dragons 01:06:04 122 24
325 2388 Sue Buckle F F45 01:06:07 123 25
326 318 Rich Sutcliffe M MSEN 01:06:11 203 63
327 2432 Raymond Barber M M65 South Leeds Lakers Running Club 01:06:12 204 7
328 1849 Muhammad Laher M MSEN 01:06:12 205 64
329 185 Andrew Hurt M M55 01:06:17 206 22
33 553 Jonathan Chadderton M M45 00:47:06 29 4
330 1376 Amanda Murray-Hind F F45 Bramley Breezers 01:06:22 124 26
331 1815 Sylvia Ross F F70 Saltaire Striders 01:06:26 125 2
332 2634 Sharon Addy F F45 01:06:28 126 27
333 1978 Jennifer Hall F FSEN 01:06:33 127 39
334 105 Claire Austin F F50 Dewsbury Road Runners 01:06:37 128 23
335 1437 Paul Mortimer M M50 Pudsey Pacers 01:06:46 207 31
336 1434 Sara potter F F40 Pudsey Pacers 01:06:47 129 25
337 1420 Katie Glossop F FSEN 01:06:52 130 40
338 816 Helen Brant F FSEN Saltaire Striders 01:06:55 131 41
339 2245 Danielle Darby F FSEN 01:06:57 132 42
34 763 Mark Smith M M45 Spenborough & District AC 00:47:10 30 5
340 1908 Michael Parker M MSEN 01:06:58 208 65
341 1844 Susy Rhodes F F40 01:07:00 133 26
342 2195 Rowan Knight M MSEN 01:07:01 209 66
343 184 Simon Dickinson M M45 01:07:01 210 33
344 1878 Louise McMahon F F40 01:07:04 134 27
345 2159 Mike Wrigglesworth M M55 01:07:07 211 23
346 2218 Stacey Sagar F FSEN 01:07:08 135 43
347 3328 Eimear O'Brien F F55 01:07:08 136 7
348 1307 Basit Khalid M M40 Eccleshill Road Runners 01:07:11 212 41
349 619 Paul Hornby M M45 01:07:26 213 34
35 428 Jonathan Cushing M MSEN 00:47:15 31 15
350 1654 Beth Millar F FSEN 01:07:32 137 44
351 2842 Jane Prust F F60 Hyde Park Harriers 01:07:33 138 5
352 1917 Clayre Hughes F F45 Pudsey Runners 01:07:34 139 28
353 419 Lottie Walker F FSEN Morley Running Club 01:07:41 140 45
354 1330 Gary Ashton M M60 01:07:43 214 7
355 1355 Sharon Bradley F F45 01:07:58 141 29
356 1325 Neil Buckle M M40 01:08:14 215 42
357 1737 April Alston F F50 Idle AC 01:08:15 142 24
358 1331 Melanie Williams F F50 01:08:16 143 25
359 1385 Barry Wilkinson M M60 01:08:22 216 8
36 1137 James Harrison M M40 Goole Viking Striders 00:47:22 32 5
360 1464 Juliette Ward F FSEN Pudsey Pacers RC 01:08:34 144 46
361 297 Chris Matthews M MSEN 01:08:45 217 67
362 2285 James Smith M MSEN 01:08:45 218 68
363 2668 Avril Archibald F FSEN 01:08:50 145 47
364 2666 Charlene Campbell F FSEN 01:08:56 146 48
365 1641 Becky Griggs F FU21 01:08:57 147 3
366 767 Andy Slater M M45 01:08:58 219 35
367 3373 Claire Macdonald F FSEN 01:09:00 148 49
368 2843 Stephen Prust M M60 Hyde Park Harriers 01:09:03 220 9
369 2904 Leanne Thacker F FSEN 01:09:03 149 50
37 253 Phil Walker M MSEN 00:47:31 33 16
370 1545 Elinor Newhouse F F65 Baildon Runners 01:09:07 150 2
371 2147 Russell Cottrell M M40 Farsley Flyers 01:09:13 221 43
372 1665 Paul Hansom M M55 01:09:13 222 24
373 1316 Mark Ibbertson M M55 Rothwell Harriers 01:09:14 223 25
374 405 Andy Kay M M50 01:09:18 224 32
375 3394 Christopher Wheatley M MSEN 01:09:19 225 69
376 18 Susan Baines F F40 01:09:30 151 28
377 2888 Amy Tutin F FSEN Horsforth Harriers 01:09:33 152 51
378 2172 Simon Pears M M45 01:09:36 226 36
379 2086 Hannah Miller F FSEN Lonely Goat 01:09:38 153 52
38 23 Darryl Ashford M M45 00:47:35 34 6
380 603 Andy Gledhill M M60 Airecentre Pacers 01:09:42 227 10
381 73 Vicky Almond F F40 01:09:42 154 29
382 2319 David Walker M MSEN 01:09:44 228 70
383 1528 Nicholas Hall M M60 01:09:45 229 11
384 1314 Zoe Pearson F FSEN 01:09:55 155 53
385 2681 Eibhlis O'Connell F FSEN 01:10:00 156 54
386 1896 Caroline Falconer F FSEN 01:10:00 157 55
387 1806 Kirsten Donnelly F F45 01:10:02 158 30
388 2705 Jeanette Campbell F F60 01:10:02 159 6
389 2026 Karen Hill F F40 01:10:08 160 30
39 1103 Tim Lancaster M M40 00:47:37 35 6
390 3381 Sheila Smith F F70 01:10:40 161 3
391 511 Pamela Tranter F F55 Otley AC 01:10:44 162 8
392 2757 Nicky Tinsley F FSEN 01:10:46 163 56
393 2054 Ruth Henderson F F45 01:10:58 164 31
394 87 Alison Walker F F40 01:11:02 165 31
395 3307 Emma Smith F FSEN 01:11:14 166 57
396 1538 Jonathan Lally M MSEN 01:11:23 230 71
397 2266 Oududh Choudhury M M45 01:11:23 231 37
398 1515 Eleanor Lilley F F45 Horsforth Harriers 01:11:30 167 32
399 2745 Barbara Amponsah F FSEN 01:11:33 168 58
4 1226 Guy Close M M40 Wetherby Runners 00:37:51 3 1
40 3256 Tom Barltrop M MSEN 00:47:50 36 17
400 1322 Ian Harrison M M50 Bramley Breezers 01:11:38 232 33
401 1542 Mandy Stamper F F55 01:12:02 169 9
402 1569 Diane Williams F F45 Baildon Runners 01:12:04 170 33
403 2649 Kate Halse F F50 Baildon Runners 01:12:17 171 26
404 1463 Humera Khan F FSEN 01:12:19 172 59
405 2700 Emma Gregson F FSEN Bramley Breezers 01:12:39 173 60
406 1443 Richard Brown M M55 01:12:46 233 26
407 680 Vikki Bean F F40 Queensbury 01:13:03 174 32
408 2782 Louise Jansen F F40 Spenborough & Dist AC 01:13:13 175 33
409 2889 Wayne Thackray M M50 01:13:14 234 34
41 27 Kris Hale M M40 00:48:02 37 7
410 3314 Beverley Morritt F F50 01:13:27 176 27
411 3299 Ingrid Rusch F F45 01:13:33 177 34
412 2892 Susie Weekes F F50 01:13:37 178 28
413 1847 Susan Jackson F F50 Spenborough & Dist AC 01:13:46 179 29
414 2025 Natalie Parry F FSEN 01:13:48 180 61
415 2669 Sheila Bugg F F45 Saltaire Striders 01:14:02 181 35
416 2063 Lisa Dowson F F40 Spenborough & Dist AC 01:14:04 182 34
417 1409 Andrew Wood M M40 Pudsey Pacers RC 01:14:17 235 44
418 2158 Michelle Craighan F F40 01:14:20 183 35
419 2914 Adele Andrew F F50 Sowerby Bridge Snails 01:14:21 184 30
42 3313 John Murrison M M50 00:48:07 38 4
420 2131 Victoria Thompson F F45 Spenborough AC 01:14:30 185 36
421 2419 Gary Waite M M55 Dragons Running Club 01:14:31 236 27
422 2616 Annette Clark F F45 Pudsey Pacers 01:14:42 186 37
423 1728 Sarah Cartin F F40 01:14:51 187 36
424 2330 Saddique Khan M MSEN 01:15:00 237 72
425 2342 Robert Thewlis M MSEN Lonely Goat 01:15:00 238 73
426 3363 Sandy Caven M M55 01:15:05 239 28
427 3377 Richard Stradling M M45 01:15:15 240 38
428 1631 Jane Dickinson F F45 01:15:23 188 38
429 1413 David Leyland M M50 Rochdale Triathlon Club 01:15:31 241 35
43 1282 Rob Gresswell M M50 Rothwell Harriers 00:48:07 39 5
430 2601 Amanda Dickinson F F40 Brighouse bumble bees 01:15:33 189 37
431 1830 Kate Dalton F FSEN 01:15:38 190 62
432 2368 Karl Smissen M MSEN 01:15:47 242 74
433 1315 Joanne Harrison F F50 Bramley Breezers 01:15:52 191 31
434 1984 France Russell F F60 01:15:52 192 7
435 1993 Parul Patel F F45 01:15:52 193 39
436 3355 Pearl Shipley F F60 Bramley Breezers 01:15:59 194 8
437 2881 Chris Mundy M M40 01:16:02 243 45
438 2009 Lisa Smith F FSEN 01:16:09 195 63
439 1805 Georgie Strandmann F FSEN 01:16:32 196 64
44 1205 Rob Mullaney M MSEN Lonely Goat 00:48:22 40 18
440 1537 Louise Nutton F F40 01:16:35 197 38
441 2908 Sue Gaffney F F55 01:16:50 198 10
442 60 Graham Helliwell M M50 Lonely Goat 01:16:51 244 36
443 1890 Jane Schofield F F55 01:17:00 199 11
444 2918 Joanne Dodds F F60 01:17:00 200 9
445 2265 Abdul Wasim M MSEN 01:17:13 245 75
446 2841 Katie McNamara F FSEN 01:17:21 201 65
447 1782 James Scaife M MSEN 01:17:26 246 76
448 4 Suzanne Fennell F F45 Dewsbury Road Runners 01:17:26 202 40
449 2766 Caroline Sutton F F55 01:17:33 203 12
45 516 Richard Hartley M MSEN 00:48:32 41 19
450 2620 Reyhana Laher F F40 Dewsbury Road Runners 01:18:13 204 39
451 3296 Luke Newell M MSEN 01:18:18 247 77
452 1656 Ron Dyson M M70 Ackworth Road Runners 01:18:23 248 4
453 1711 Helen Middleton F F55 01:18:25 205 13
454 1956 Ken Henderson M M60 01:18:36 249 12
455 3416 Samantha Clayton F FSEN 01:18:45 206 66
456 3298 Lorraine Wilby F F55 01:18:51 207 14
457 2644 Mark Nicholl M M40 01:19:00 250 46
458 2120 Liam Watson M MU21 01:19:03 251 3
459 2755 Hayley Maud F FSEN Waveney Valley 01:19:25 208 67
46 206 Cris Reis F FSEN 00:48:38 5 3
460 2629 Helen Gibbons F F40 Queensbury Running Club 01:19:39 209 40
461 2621 Alex Smith M M55 01:19:53 252 29
462 1335 Louise Innes F FSEN Queensbury Running Club 01:20:16 210 68
463 2940 Victoria Wright F FSEN 01:20:17 211 69
464 2829 Hasan Shah M MU21 01:20:21 253 4
465 1854 Carole Pannullo F F50 Keighley and Craven 01:20:58 212 32
466 2905 Andy Webster M M40 01:21:01 254 47
467 528 Adrienne Preston F F45 Keighley and Craven 01:21:03 213 41
468 2769 Trisha Stringer F FSEN Eccleshill Road Runners 01:21:04 214 70
469 2004 Tracy Williams F FSEN 01:21:42 215 71
47 968 Jonathan Craker M MSEN 00:48:49 42 20
470 2613 Lyndsay Holliday F FSEN 01:21:50 216 72
471 2623 Julie Cooper F F55 Bramley Breezers 01:21:55 217 15
472 2803 Hazel Crabb F F65 Bramley Breezers 01:22:49 218 3
473 2851 Elizabeth Thompson F F50 Queensbury RC 01:22:56 219 33
474 2966 Tony Smith M M55 01:23:00 255 30
475 3345 Claire McAndrew F F50 Airedale Dodgers 01:23:00 220 34
476 1648 Michelle Shepherd F F45 Queensbury RC 01:23:21 221 42
477 2815 Peter Forbes M M60 south Leeds Lakers 01:23:29 256 13
478 1584 Daxa Patel F F55 01:23:46 222 16
479 2580 Dawn Moss F F50 Bramley Breezers 01:24:10 223 35
48 295 Adam Firth M MSEN Bramley Breezers 00:48:50 43 21
480 2447 Michelle Dare F F55 Pudsey Pacers 01:24:58 224 17
481 2727 Lisa Jennings F F40 Bramley breezers 01:25:04 225 41
482 1326 Lisa Buckle F F40 01:25:48 226 42
483 2756 Tracey Williams F F55 01:26:09 227 18
484 2662 Louise Jarvis F F45 Bramley Breezers 01:26:21 228 43
485 2906 Taylor Neave F FSEN 01:26:21 229 73
486 49 David Gee M M60 01:26:23 257 14
487 1347 Sarah Whiteman F FSEN South Leeds Lakers 01:26:23 230 74
488 2630 Angela Leonard F FSEN 01:26:36 231 75
489 1408 Alexandra Whitehead F FSEN Morley Running Club 01:26:55 232 76
49 984 Greg Troy M MSEN 00:48:57 44 22
490 3320 Katie Grimley F FSEN 01:27:39 233 77
491 2636 Julie Simpson F F60 01:28:00 234 10
492 3315 Tracy Charlton F F45 01:28:14 235 44
493 2656 Alec Sidebottom M M65 01:28:19 258 8
494 57 Miriam Caldecott F F45 01:29:00 236 45
495 2622 Lucy Hardman F F45 Bramley Breezers 01:29:46 237 46
496 3354 Stuart Pinchbeck M M70 01:30:14 259 5
497 2272 Mustafa Qamar M MU21 01:30:16 260 5
498 2646 Ann Wilkinson-Cox F F45 01:30:30 238 47
499 2680 Adele Gribbin F F50 01:30:47 239 36
5 316 David Caddick M M50 00:38:33 4 1
50 1036 Russell Horne M M45 00:49:10 45 7
500 2887 Mohammed Zain M MU21 01:31:37 261 6
501 1742 Heather Bayliss F F40 Saltaire Striders 01:31:39 240 43
502 2013 Julie Browne F F50 01:32:00 241 37
503 1899 Samantha Slatter F F45 01:35:10 242 48
504 3365 Beata Kamran F FSEN 01:35:10 243 78
505 1898 Jamie Whipp M M40 01:36:10 262 48
506 1348 Yvonne Smurthwaite F F60 01:37:45 244 11
507 3357 Dick Bak M M70 Morley Running Club 01:38:21 263 6
508 1620 Gill Kennedy F F55 01:38:40 245 19
509 2562 Ian Slater M M45 01:39:07 264 39
51 1094 Damian Oxborough M M40 00:49:22 46 8
510 3318 Angela Waddington F F50 01:39:39 246 38
511 1843 Eleanor Hughes F FSEN 01:40:00 247 79
512 2720 Anthony Hughes M M60 01:40:27 265 15
513 2719 Patricia Hughes F F65 01:40:30 248 4
514 128 Anthony Bowyer M MSEN Pontefract AC 01:41:05 266 78
515 2938 Suki Virk F F40 01:45:35 249 44
516 2391 Ravinder Gill F F45 01:45:35 250 49
517 3337 Nicky Brown F F45 01:49:15 251 50
518 3336 Jason Whiteley M M45 01:49:18 267 40
519 3304 Fiona Farquhar F F50 01:49:30 252 39
52 640 Stefanie Dickinson F F45 Halifax Harriers 00:49:29 6 1
520 1373 Heather Graham F F45 South Leeds Lakers 01:50:11 253 51
521 2885 Konzekerani Chigwenembe F FSEN 01:50:12 254 80
522 1763 John Martin M M55 01:59:11 268 31
523 1818 Anthea Sully F F50 01:59:37 255 40
524 1817 Graham Sparkes M M60 01:59:37 269 16
525 145 Samuel Rushton M MSEN 02:00:00 270 79
526 144 Ian Rushton M M55 02:00:00 271 32
527 2618 Christine Shaw F F45 Rothwell Harriers & AC 02:03:51 256 52
528 2890 Kara Blackburn F F45 02:04:12 257 53
529 3366 Phyl Fleming F F50 02:07:37 258 41
53 366 Peter Hall M MSEN 00:49:37 47 23
530 3398 Liz Duncan F F45 02:07:37 259 54
531 3401 Julia Zimmek F F60 02:07:40 260 12
532 2579 Lorraine Glossop F F60 02:12:00 261 13
533 2628 Rachel Hughes F F55 Sowerby Bridge Snails 02:13:00 262 20
534 3412 Samantha Duerr F F40 02:13:23 263 45
535 2619 Mandy Boole F F60 Pudsey Pacers 02:19:02 264 14
536 3310 Sarah Moses F F50 02:19:19 265 42
537 1664 Catherine Long F FSEN 02:20:55 266 81
538 1203 Adam Jowett M M45 02:33:00 272 41
539 1093 Ella Blackburn F FU21 03:22:06 267 4
54 149 Keith Hale M M50 00:49:43 48 6
55 942 Adam Johnson M M40 00:49:44 49 9
56 1368 Andrew Young M M40 Queensbury Running Club 00:49:47 50 10
57 424 Ian Farmer M M55 00:49:50 51 4
58 646 David Boyle M M70 00:49:51 52 1
59 3276 Robert Tomlin M M55 Prestwich AC 00:49:53 53 5
6 711 Richard Walker M M45 Airecentre Pacers 00:38:37 5 1
60 420 James Lyner M MSEN Bramley Breezers 00:49:53 54 24
61 286 Darren Gibson M MSEN 00:49:58 55 25
62 1110 Monika Godula F FSEN 00:50:02 7 4
63 827 Samantha Hall F FSEN 00:50:02 8 5
64 1202 Bridie Bedford F FSEN 00:50:03 9 6
65 1022 Mark Gardner M M40 Lonely Goat 00:50:07 56 11
66 547 Rebecca Hunt F FSEN 00:50:09 10 7
67 548 Gareth Williams M M40 00:50:09 57 12
68 1055 Shantel Ross F FSEN Horsforth harriers 00:50:20 11 8
69 1478 Hannah Thompson F FU21 00:50:40 12 1
7 654 Sam Digby M MSEN 00:39:40 6 3
70 278 Daniel Simpson M MSEN 00:50:58 58 26
71 3333 Paul Hopkinson M M60 00:51:07 59 2
72 1591 Gary Powell M MSEN 00:51:19 60 27
73 1856 Andrew Heppleston M MSEN 00:51:29 61 28
74 285 David Johnson M MSEN Bramley Breezers 00:51:31 62 29
75 333 Clive Crawshaw M M40 00:51:32 63 13
76 2066 James Holdsworth M M50 00:51:39 64 7
77 392 Lyndsay Shaw F FSEN 00:51:40 13 9
78 241 Philip Lynch M M65 00:51:41 65 1
79 910 Shiraz Valimulla M MSEN 00:51:43 66 30
8 1273 Aaron Bell M MSEN 00:40:33 7 4
80 1026 Danny Bishop M M40 Tividale trotters 00:51:47 67 14
81 1124 Nigel Rigg M M55 Halifax Harriers 00:51:51 68 6
82 2046 Steven Roberts M M40 00:51:52 69 15
83 2188 Richard Alexander M MSEN 00:51:53 70 31
84 2690 Aidan Enright M M40 00:51:54 71 16
85 281 John Sherlock M M40 00:51:58 72 17
86 1000 Wayne Doherty M M40 00:52:16 73 18
87 740 Wayne Cowley M M45 00:52:28 74 8
88 1102 Andrew Hills M M50 Halifax harriers 00:52:29 75 8
89 862 Nigel Jamieson M M45 Halifax Harriers 00:52:29 76 9
9 1173 Darren Batey M M45 00:41:58 8 2
90 3332 Glynn Mortimer M M50 00:52:32 77 9
91 766 Imran Zafar M MSEN 00:52:32 78 32
92 381 Tom Nelson M MSEN 00:52:37 79 33
93 493 Andy Purll M M45 Ripon Runners 00:52:40 80 10
94 256 David Mitchell M M45 00:52:43 81 11
95 54 Karen Head F F45 Rothwell Harriers & A.C 00:52:45 14 2
96 726 Jason Glen-Foulds M MSEN 00:52:46 82 34
97 1627 Tarquin Halse M M50 Baildon Runners 00:52:59 83 10
98 972 James Farrar M MSEN 00:53:03 84 35
99 233 Brian Shaw M M55 Rothwell Harriers & AC 00:53:05 85 7